createdAt,value
2018-07-22T00:00:32.771Z,3.23
2018-07-22T00:03:03.668Z,3.17
2018-07-22T00:05:34.765Z,3.40
2018-07-22T00:08:05.304Z,3.00
2018-07-22T00:10:36.799Z,3.27
2018-07-22T00:13:07.357Z,3.20
2018-07-22T00:15:38.980Z,3.23
2018-07-22T00:18:09.510Z,3.23
2018-07-22T00:20:40.619Z,2.90
2018-07-22T00:23:11.178Z,3.00
2018-07-22T00:25:42.465Z,3.03
2018-07-22T00:28:13.656Z,3.00
2018-07-22T00:30:44.794Z,3.20
2018-07-22T00:33:16.309Z,3.30
2018-07-22T00:35:47.261Z,3.23
2018-07-22T00:38:17.837Z,3.17
2018-07-22T00:40:49.026Z,2.90
2018-07-22T00:43:19.892Z,3.40
2018-07-22T00:45:51.633Z,2.97
2018-07-22T00:48:22.284Z,3.20
2018-07-22T00:50:53.565Z,3.00
2018-07-22T00:53:24.323Z,3.47
2018-07-22T00:55:54.913Z,2.97
2018-07-22T00:58:25.434Z,3.30
2018-07-22T01:00:56.363Z,2.87
2018-07-22T01:03:26.614Z,3.10
2018-07-22T01:05:58.013Z,3.27
2018-07-22T01:08:28.890Z,3.23
2018-07-22T01:11:01.304Z,3.23
2018-07-22T01:13:32.135Z,3.30
2018-07-22T01:16:02.472Z,3.10
2018-07-22T01:18:33.310Z,3.13
2018-07-22T01:21:04.083Z,3.27
2018-07-22T01:23:34.573Z,3.20
2018-07-22T01:26:05.725Z,3.50
2018-07-22T01:28:36.603Z,3.10
2018-07-22T01:31:07.743Z,3.47
2018-07-22T01:33:38.180Z,3.13
2018-07-22T01:36:09.172Z,3.30
2018-07-22T01:38:39.763Z,3.17
2018-07-22T01:41:11.523Z,3.57
2018-07-22T01:43:41.962Z,3.03
2018-07-22T01:46:13.408Z,2.70
2018-07-22T01:48:42.952Z,3.20
2018-07-22T01:51:14.097Z,3.30
2018-07-22T01:53:44.443Z,3.50
2018-07-22T01:56:15.739Z,2.73
2018-07-22T01:58:46.263Z,3.20
2018-07-22T02:01:17.253Z,3.63
2018-07-22T02:03:47.610Z,3.10
2018-07-22T02:06:18.586Z,3.27
2018-07-22T02:08:48.994Z,3.33
2018-07-22T02:11:19.413Z,2.87
2018-07-22T02:13:50.806Z,2.73
2018-07-22T02:16:21.818Z,3.10
2018-07-22T02:18:52.103Z,2.90
2018-07-22T02:21:23.146Z,2.97
2018-07-22T02:23:54.114Z,3.13
2018-07-22T02:26:26.091Z,3.20
2018-07-22T02:28:57.229Z,2.83
2018-07-22T02:31:28.140Z,2.93
2018-07-22T02:33:59.253Z,3.13
2018-07-22T02:36:30.115Z,3.17
2018-07-22T02:39:00.083Z,2.77
2018-07-22T02:41:31.444Z,2.67
2018-07-22T02:44:02.120Z,3.10
2018-07-22T02:46:32.068Z,2.93
2018-07-22T02:49:03.805Z,3.00
2018-07-22T02:51:34.651Z,3.63
2018-07-22T02:54:05.787Z,3.23
2018-07-22T02:56:36.414Z,3.00
2018-07-22T02:59:06.630Z,3.47
2018-07-22T03:01:38.726Z,3.47
2018-07-22T03:04:10.196Z,3.00
2018-07-22T03:07:23.269Z,2.90
2018-07-22T03:09:53.659Z,2.93
2018-07-22T03:12:25.096Z,2.97
2018-07-22T03:14:55.538Z,3.30
2018-07-22T03:17:26.783Z,3.07
2018-07-22T03:19:57.206Z,3.20
2018-07-22T03:22:28.599Z,2.87
2018-07-22T03:24:58.511Z,3.20
2018-07-22T03:27:30.448Z,3.23
2018-07-22T03:30:01.280Z,3.10
2018-07-22T03:32:32.648Z,3.33
2018-07-22T03:35:03.930Z,2.80
2018-07-22T03:37:35.359Z,3.30
2018-07-22T03:40:06.045Z,2.63
2018-07-22T03:42:37.007Z,3.10
2018-07-22T03:45:06.660Z,3.00
2018-07-22T03:47:37.346Z,3.10
2018-07-22T03:50:07.835Z,2.87
2018-07-22T03:52:38.614Z,3.13
2018-07-22T03:55:09.373Z,3.00
2018-07-22T03:57:40.158Z,2.87
2018-07-22T04:00:11.007Z,3.03
2018-07-22T04:02:42.004Z,2.90
2018-07-22T04:05:12.963Z,3.23
2018-07-22T04:07:44.111Z,3.23
2018-07-22T04:10:14.933Z,3.63
2018-07-22T04:12:45.901Z,3.20
2018-07-22T04:15:16.792Z,3.23
2018-07-22T04:17:47.143Z,3.03
2018-07-22T04:20:17.799Z,2.90
2018-07-22T04:22:49.588Z,2.90
2018-07-22T04:25:21.359Z,3.07
2018-07-22T04:27:51.994Z,3.03
2018-07-22T04:30:22.983Z,2.87
2018-07-22T04:32:54.975Z,2.93
2018-07-22T04:35:25.571Z,3.50
2018-07-22T04:37:56.754Z,2.63
2018-07-22T04:40:27.331Z,3.93
2018-07-22T04:42:58.047Z,2.97
2018-07-22T04:45:29.047Z,2.90
2018-07-22T04:47:59.643Z,2.73
2018-07-22T04:50:30.456Z,3.27
2018-07-22T04:53:01.820Z,2.97
2018-07-22T04:55:33.067Z,3.20
2018-07-22T04:58:04.296Z,3.17
2018-07-22T05:00:35.226Z,3.23
2018-07-22T05:03:06.087Z,3.20
2018-07-22T05:05:36.801Z,3.20
2018-07-22T05:08:07.987Z,2.80
2018-07-22T05:10:38.630Z,3.20
2018-07-22T05:13:09.447Z,2.97
2018-07-22T05:15:39.893Z,3.40
2018-07-22T05:18:10.866Z,2.60
2018-07-22T05:20:41.529Z,2.80
2018-07-22T05:23:13.493Z,3.00
2018-07-22T05:25:44.245Z,2.93
2018-07-22T05:28:14.196Z,2.93
2018-07-22T05:30:44.866Z,2.93
2018-07-22T05:33:15.442Z,2.57
2018-07-22T05:35:46.367Z,2.70
2018-07-22T05:38:16.676Z,2.73
2018-07-22T05:40:46.727Z,2.77
2018-07-22T05:43:17.427Z,2.90
2018-07-22T05:45:48.167Z,2.63
2018-07-22T05:48:18.429Z,2.80
2018-07-22T05:50:49.419Z,2.90
2018-07-22T05:53:19.690Z,2.80
2018-07-22T05:55:50.431Z,2.60
2018-07-22T05:58:21.262Z,2.33
2018-07-22T06:00:52.011Z,2.60
2018-07-22T06:03:23.779Z,2.97
2018-07-22T06:05:54.831Z,3.17
2018-07-22T06:08:25.304Z,2.77
2018-07-22T06:10:56.014Z,2.10
2018-07-22T06:13:26.981Z,2.50
2018-07-22T06:15:58.077Z,2.40
2018-07-22T06:18:37.325Z,2.40
2018-07-22T06:21:08.339Z,2.43
2018-07-22T06:23:39.221Z,2.70
2018-07-22T06:26:10.161Z,2.37
2018-07-22T06:28:41.189Z,2.43
2018-07-22T06:31:12.251Z,2.63
2018-07-22T06:33:43.298Z,2.23
2018-07-22T06:36:14.066Z,2.60
2018-07-22T06:38:44.750Z,2.80
2018-07-22T06:41:16.565Z,2.30
2018-07-22T06:43:47.859Z,2.43
2018-07-22T06:46:18.352Z,2.60
2018-07-22T06:48:48.143Z,2.47
2018-07-22T06:51:19.122Z,2.80
2018-07-22T06:53:49.787Z,2.50
2018-07-22T06:56:19.484Z,2.70
2018-07-22T06:58:50.739Z,2.50
2018-07-22T07:01:35.939Z,2.20
2018-07-22T07:04:07.191Z,2.70
2018-07-22T07:06:38.093Z,2.30
2018-07-22T07:09:12.027Z,2.10
2018-07-22T07:11:42.588Z,2.40
2018-07-22T07:14:31.221Z,2.33
2018-07-22T07:17:30.543Z,2.40
2018-07-22T07:20:01.701Z,2.40
2018-07-22T07:25:51.484Z,2.50
2018-07-22T07:28:21.157Z,2.37
2018-07-22T07:30:51.950Z,2.40
2018-07-22T07:33:22.779Z,2.20
2018-07-22T07:35:53.793Z,2.43
2018-07-22T07:38:24.375Z,2.43
2018-07-22T07:51:03.522Z,2.23
2018-07-22T07:53:33.837Z,2.17
2018-07-22T07:56:03.881Z,2.40
2018-07-22T07:58:34.955Z,2.67
2018-07-22T08:01:05.918Z,2.53
2018-07-22T08:03:37.077Z,2.20
2018-07-22T08:06:14.350Z,2.40
2018-07-22T08:09:03.821Z,2.23
2018-07-22T08:15:03.809Z,2.20
2018-07-22T08:17:34.734Z,2.13
2018-07-22T08:20:06.274Z,2.20
2018-07-22T08:22:45.581Z,1.80
2018-07-22T08:25:33.922Z,2.23
2018-07-22T08:28:57.894Z,2.00
2018-07-22T08:31:28.428Z,2.10
2018-07-22T08:34:00.841Z,1.90
2018-07-22T08:36:32.040Z,1.90
2018-07-22T08:39:18.963Z,2.13
2018-07-22T08:41:50.077Z,1.90
2018-07-22T08:44:20.635Z,1.97
2018-07-22T08:46:52.170Z,2.20
2018-07-22T08:49:28.584Z,1.90
2018-07-22T08:52:00.170Z,1.60
2018-07-22T08:55:06.134Z,2.00
2018-07-22T08:57:37.347Z,2.17
2018-07-22T09:00:08.150Z,2.00
2018-07-22T09:02:39.029Z,2.30
2018-07-22T09:05:09.593Z,2.20
2018-07-22T09:07:40.557Z,2.00
2018-07-22T09:10:11.309Z,2.40
2018-07-22T09:12:42.236Z,1.93
2018-07-22T09:15:12.812Z,2.30
2018-07-22T09:17:44.208Z,2.10
2018-07-22T09:20:22.003Z,2.03
2018-07-22T09:22:52.281Z,1.97
2018-07-22T09:25:22.819Z,2.13
2018-07-22T09:28:02.964Z,1.73
2018-07-22T09:30:34.017Z,2.10
2018-07-22T09:33:05.362Z,2.00
2018-07-22T09:35:35.922Z,2.30
2018-07-22T09:38:07.028Z,2.03
2018-07-22T09:40:46.763Z,2.47
2018-07-22T09:43:19.860Z,2.10
2018-07-22T09:45:50.331Z,2.13
2018-07-22T09:48:21.267Z,2.17
2018-07-22T09:50:54.732Z,2.10
2018-07-22T09:53:26.121Z,2.13
2018-07-22T09:55:56.661Z,1.97
2018-07-22T09:58:35.865Z,2.30
2018-07-22T10:04:16.850Z,2.10
2018-07-22T10:06:47.610Z,1.73
2018-07-22T10:09:28.196Z,1.87
2018-07-22T10:15:01.240Z,2.00
2018-07-22T10:17:44.130Z,1.93
2018-07-22T10:20:15.776Z,2.07
2018-07-22T10:22:46.018Z,1.70
2018-07-22T10:25:18.137Z,2.00
2018-07-22T10:27:48.554Z,1.93
2018-07-22T10:30:27.485Z,2.27
2018-07-22T10:33:03.250Z,1.80
2018-07-22T10:38:55.151Z,2.10
2018-07-22T10:41:27.132Z,1.47
2018-07-22T10:43:57.470Z,1.80
2018-07-22T10:46:27.383Z,1.90
2018-07-22T10:48:59.931Z,1.73
2018-07-22T10:51:29.961Z,1.80
2018-07-22T10:54:00.535Z,1.50
2018-07-22T10:56:30.535Z,1.60
2018-07-22T10:59:00.794Z,1.73
2018-07-22T11:01:31.131Z,1.70
2018-07-22T11:04:01.858Z,1.63
2018-07-22T11:06:32.461Z,1.70
2018-07-22T11:09:02.935Z,1.70
2018-07-22T11:11:33.299Z,1.60
2018-07-22T11:14:03.972Z,1.70
2018-07-22T11:16:36.808Z,1.97
2018-07-22T11:19:08.449Z,1.70
2018-07-22T11:21:38.733Z,1.73
2018-07-22T11:24:09.144Z,1.80
2018-07-22T11:26:41.089Z,1.63
2018-07-22T11:29:10.901Z,1.60
2018-07-22T11:31:41.007Z,1.63
2018-07-22T11:34:11.401Z,1.77
2018-07-22T11:36:41.692Z,1.47
2018-07-22T11:39:12.507Z,1.57
2018-07-22T11:41:45.349Z,1.50
2018-07-22T11:44:17.097Z,1.80
2018-07-22T11:46:48.948Z,1.60
2018-07-22T11:49:19.168Z,1.80
2018-07-22T11:51:49.481Z,1.70
2018-07-22T11:54:19.646Z,1.57
2018-07-22T11:56:49.726Z,1.77
2018-07-22T11:59:19.924Z,1.52
2018-07-22T12:01:50.298Z,2.25
2018-07-22T12:04:22.338Z,1.60
2018-07-22T12:06:52.765Z,1.60
2018-07-22T12:09:22.955Z,1.65
2018-07-22T12:11:53.246Z,1.62
2018-07-22T12:14:23.957Z,1.62
2018-07-22T12:16:54.221Z,1.85
2018-07-22T12:19:23.899Z,1.83
2018-07-22T12:21:54.504Z,1.72
2018-07-22T12:24:24.774Z,1.45
2018-07-22T12:26:58.191Z,1.77
2018-07-22T12:29:28.454Z,1.80
2018-07-22T12:31:58.811Z,1.80
2018-07-22T12:34:29.080Z,1.65
2018-07-22T12:36:58.896Z,1.72
2018-07-22T12:39:29.502Z,1.90
2018-07-22T12:41:59.649Z,1.70
2018-07-22T12:44:31.531Z,2.08
2018-07-22T12:47:12.132Z,2.00
2018-07-22T12:50:00.465Z,2.12
2018-07-22T12:52:31.390Z,1.77
2018-07-22T12:55:01.480Z,1.70
2018-07-22T12:57:37.523Z,2.33
2018-07-22T13:00:08.417Z,1.80
2018-07-22T13:02:38.870Z,1.90
2018-07-22T13:05:09.354Z,1.90
2018-07-22T13:07:40.266Z,2.55
2018-07-22T13:10:11.515Z,2.10
2018-07-22T13:12:42.062Z,1.92
2018-07-22T13:15:12.511Z,2.05
2018-07-22T13:17:44.045Z,1.90
2018-07-22T13:20:14.387Z,2.10
2018-07-22T13:22:44.879Z,2.25
2018-07-22T13:25:15.524Z,2.15
2018-07-22T13:27:46.189Z,1.75
2018-07-22T13:30:16.754Z,2.10
2018-07-22T13:32:47.060Z,1.98
2018-07-22T13:35:17.665Z,2.27
2018-07-22T13:37:47.973Z,2.20
2018-07-22T13:40:19.350Z,2.17
2018-07-22T13:42:49.771Z,2.35
2018-07-22T13:45:19.727Z,2.15
2018-07-22T13:47:50.082Z,1.90
2018-07-22T13:50:32.752Z,2.20
2018-07-22T13:53:02.817Z,2.10
2018-07-22T13:55:34.059Z,2.27
2018-07-22T13:58:05.168Z,2.20
2018-07-22T14:00:37.054Z,2.45
2018-07-22T14:03:07.926Z,2.10
2018-07-22T14:05:39.370Z,2.00
2018-07-22T14:08:09.619Z,2.22
2018-07-22T14:10:41.697Z,2.27
2018-07-22T14:13:11.774Z,2.30
2018-07-22T14:15:42.463Z,2.33
2018-07-22T14:18:13.306Z,2.00
2018-07-22T14:20:44.540Z,2.33
2018-07-22T14:23:16.092Z,2.30
2018-07-22T14:25:46.217Z,2.30
2018-07-22T14:28:16.287Z,2.30
2018-07-22T14:30:47.617Z,2.35
2018-07-22T14:33:17.605Z,2.22
2018-07-22T14:35:48.282Z,2.17
2018-07-22T14:38:18.472Z,2.25
2018-07-22T14:40:49.292Z,2.10
2018-07-22T14:43:20.044Z,2.10
2018-07-22T14:45:50.919Z,1.87
2018-07-22T14:48:21.454Z,2.15
2018-07-22T14:50:51.882Z,2.20
2018-07-22T14:55:54.144Z,2.27
2018-07-22T14:58:27.504Z,2.22
2018-07-22T15:01:02.943Z,1.98
2018-07-22T15:03:34.192Z,2.00
2018-07-22T15:06:04.408Z,2.22
2018-07-22T15:08:34.666Z,2.37
2018-07-22T15:11:11.549Z,2.62
2018-07-22T15:13:42.216Z,2.20
2018-07-22T15:16:13.146Z,2.50
2018-07-22T15:18:43.386Z,2.60
2018-07-22T15:21:13.661Z,2.60
2018-07-22T15:23:43.528Z,2.05
2018-07-22T15:26:14.233Z,2.70
2018-07-22T15:28:44.242Z,2.20
2018-07-22T15:31:14.546Z,2.87
2018-07-22T15:33:45.384Z,2.50
2018-07-22T15:36:15.078Z,2.40
2018-07-22T15:38:45.893Z,2.12
2018-07-22T15:41:16.499Z,2.20
2018-07-22T15:43:47.504Z,2.35
2018-07-22T15:46:18.002Z,2.20
2018-07-22T15:48:48.762Z,2.40
2018-07-22T15:51:18.885Z,2.65
2018-07-22T15:53:49.071Z,2.58
2018-07-22T15:56:19.906Z,2.60
2018-07-22T15:58:50.312Z,2.40
2018-07-22T16:01:21.276Z,2.35
2018-07-22T16:03:52.560Z,2.37
2018-07-22T16:06:23.216Z,2.25
2018-07-22T16:08:58.907Z,2.27
2018-07-22T16:11:29.388Z,2.50
2018-07-22T16:13:59.501Z,2.35
2018-07-22T16:16:43.207Z,2.22
2018-07-22T16:19:13.978Z,2.22
2018-07-22T16:21:44.818Z,2.45
2018-07-22T16:24:14.990Z,2.25
2018-07-22T16:26:44.708Z,2.40
2018-07-22T16:29:15.362Z,2.20
2018-07-22T16:31:45.295Z,2.52
2018-07-22T16:34:24.216Z,2.60
2018-07-22T16:36:55.102Z,2.40
2018-07-22T16:39:25.065Z,2.20
2018-07-22T16:41:55.335Z,2.60
2018-07-22T16:44:24.931Z,2.02
2018-07-22T16:46:56.451Z,2.40
2018-07-22T16:49:26.648Z,2.50
2018-07-22T16:51:57.133Z,2.67
2018-07-22T16:54:27.760Z,2.37
2018-07-22T16:56:58.024Z,2.42
2018-07-22T16:59:28.182Z,2.58
2018-07-22T17:01:58.853Z,2.65
2018-07-22T17:04:28.070Z,2.05
2018-07-22T17:07:03.088Z,2.33
2018-07-22T17:09:33.716Z,2.40
2018-07-22T17:12:04.373Z,2.40
2018-07-22T17:14:34.564Z,2.45
2018-07-22T17:17:04.615Z,2.10
2018-07-22T17:19:34.972Z,2.35
2018-07-22T17:22:05.163Z,2.27
2018-07-22T17:24:35.243Z,2.35
2018-07-22T17:27:05.534Z,2.72
2018-07-22T17:29:35.875Z,2.47
2018-07-22T17:32:06.091Z,2.67
2018-07-22T17:34:38.162Z,2.27
2018-07-22T17:37:08.417Z,2.40
2018-07-22T17:39:42.553Z,2.50
2018-07-22T17:42:13.811Z,2.20
2018-07-22T17:44:44.091Z,2.08
2018-07-22T17:47:14.545Z,1.90
2018-07-22T17:49:45.142Z,2.55
2018-07-22T17:52:15.267Z,1.90
2018-07-22T17:54:46.050Z,2.57
2018-07-22T17:57:15.456Z,2.60
2018-07-22T17:59:45.529Z,2.40
2018-07-22T18:02:16.578Z,2.20
2018-07-22T18:04:46.140Z,2.40
2018-07-22T18:07:16.842Z,2.30
2018-07-22T18:09:47.439Z,2.35
2018-07-22T18:12:17.875Z,2.30
2018-07-22T18:14:47.879Z,2.50
2018-07-22T18:17:18.253Z,2.40
2018-07-22T18:19:48.729Z,2.60
2018-07-22T18:22:18.999Z,2.27
2018-07-22T18:24:53.125Z,2.53
2018-07-22T18:27:23.500Z,2.40
2018-07-22T18:29:53.820Z,2.53
2018-07-22T18:32:24.224Z,2.20
2018-07-22T18:34:54.705Z,2.43
2018-07-22T18:37:25.290Z,2.53
2018-07-22T18:39:55.918Z,2.33
2018-07-22T18:42:26.667Z,2.03
2018-07-22T18:44:58.924Z,2.70
2018-07-22T18:47:29.511Z,2.80
2018-07-22T18:50:00.040Z,2.47
2018-07-22T18:52:32.883Z,2.60
2018-07-22T18:55:08.431Z,2.80
2018-07-22T18:57:42.163Z,2.67
2018-07-22T19:00:12.233Z,2.73
2018-07-22T19:02:43.297Z,2.37
2018-07-22T19:05:13.757Z,2.73
2018-07-22T19:07:44.113Z,2.57
2018-07-22T19:10:15.057Z,2.63
2018-07-22T19:12:45.418Z,2.27
2018-07-22T19:15:15.254Z,2.30
2018-07-22T19:17:46.006Z,2.67
2018-07-22T19:20:25.857Z,2.80
2018-07-22T19:22:56.451Z,2.47
2018-07-22T19:25:26.650Z,2.03
2018-07-22T19:28:10.420Z,2.47
2018-07-22T19:30:49.152Z,2.80
2018-07-22T19:33:18.984Z,2.27
2018-07-22T19:35:50.802Z,2.27
2018-07-22T19:38:23.609Z,2.37
2018-07-22T19:40:53.971Z,2.30
2018-07-22T19:43:24.089Z,2.63
2018-07-22T19:45:54.338Z,2.60
2018-07-22T19:48:24.689Z,2.80
2018-07-22T19:50:55.630Z,2.57
2018-07-22T19:53:26.972Z,2.07
2018-07-22T19:55:57.016Z,2.53
2018-07-22T19:58:27.170Z,2.60
2018-07-22T20:00:58.513Z,2.80
2018-07-22T20:03:28.056Z,2.30
2018-07-22T20:05:59.025Z,2.50
2018-07-22T20:08:29.621Z,2.47
2018-07-22T20:11:00.607Z,2.60
2018-07-22T20:13:30.818Z,2.60
2018-07-22T20:16:03.177Z,2.93
2018-07-22T20:18:32.861Z,2.70
2018-07-22T20:21:03.378Z,3.10
2018-07-22T20:23:33.924Z,2.80
2018-07-22T20:26:04.245Z,2.63
2018-07-22T20:28:35.504Z,2.50
2018-07-22T20:31:05.455Z,3.07
2018-07-22T20:33:36.136Z,3.20
2018-07-22T20:36:06.443Z,2.93
2018-07-22T20:38:41.760Z,2.70
2018-07-22T20:41:11.511Z,2.90
2018-07-22T20:47:03.593Z,2.90
2018-07-22T20:49:37.715Z,2.90
2018-07-22T20:52:35.167Z,2.90
2018-07-22T20:55:06.106Z,2.60
2018-07-22T20:57:37.383Z,3.07
2018-07-22T21:00:08.227Z,2.43
2018-07-22T21:02:40.149Z,2.70
2018-07-22T21:05:11.462Z,2.90
2018-07-22T21:07:44.075Z,2.40
2018-07-22T21:10:14.760Z,2.70
2018-07-22T21:12:56.252Z,2.67
2018-07-22T21:15:28.486Z,2.77
2018-07-22T21:17:59.203Z,2.87
2018-07-22T21:20:30.110Z,2.57
2018-07-22T21:22:59.826Z,2.80
2018-07-22T21:25:30.512Z,2.40
2018-07-22T21:28:01.136Z,2.77
2018-07-22T21:30:31.952Z,2.93
2018-07-22T21:33:02.723Z,2.90
2018-07-22T21:35:33.725Z,3.27
2018-07-22T21:38:04.238Z,2.70
2018-07-22T21:40:34.757Z,2.73
2018-07-22T21:43:06.157Z,2.60
2018-07-22T21:45:37.553Z,3.00
2018-07-22T21:48:09.700Z,3.13
2018-07-22T21:50:50.606Z,2.80
2018-07-22T21:53:21.113Z,2.67
2018-07-22T21:55:50.885Z,2.80
2018-07-22T21:58:21.331Z,2.67
2018-07-22T22:00:52.329Z,3.20
2018-07-22T22:03:21.899Z,2.60
2018-07-22T22:05:52.463Z,3.20
2018-07-22T22:08:24.480Z,3.17
2018-07-22T22:10:54.877Z,2.83
2018-07-22T22:13:25.409Z,3.30
2018-07-22T22:15:56.565Z,3.23
2018-07-22T22:18:27.159Z,3.00
2018-07-22T22:20:58.724Z,2.90
2018-07-22T22:23:29.718Z,3.40
2018-07-22T22:26:00.127Z,3.20
2018-07-22T22:28:30.966Z,3.10
2018-07-22T22:31:01.545Z,2.97
2018-07-22T22:33:31.610Z,3.00
2018-07-22T22:36:02.144Z,3.00
2018-07-22T22:38:33.864Z,3.27
2018-07-22T22:41:04.334Z,2.90
2018-07-22T22:43:35.278Z,3.70
2018-07-22T22:46:05.800Z,3.17
2018-07-22T22:48:36.767Z,3.00
2018-07-22T22:51:08.033Z,3.30
2018-07-22T22:53:39.060Z,3.53
2018-07-22T22:56:09.631Z,2.97
2018-07-22T22:58:51.564Z,3.00
2018-07-22T23:01:22.072Z,3.33
2018-07-22T23:03:52.210Z,3.20
2018-07-22T23:06:22.840Z,3.30
2018-07-22T23:09:22.145Z,3.10
2018-07-22T23:11:52.669Z,3.67
2018-07-22T23:14:22.261Z,2.97
2018-07-22T23:16:52.637Z,3.50
2018-07-22T23:19:23.325Z,3.50
2018-07-22T23:21:54.768Z,3.40
2018-07-22T23:24:25.381Z,3.43
2018-07-22T23:26:56.344Z,3.50
2018-07-22T23:29:26.841Z,3.23
2018-07-22T23:31:59.000Z,3.23
2018-07-22T23:34:29.730Z,2.83
2018-07-22T23:37:00.433Z,3.30
2018-07-22T23:39:30.237Z,3.73
2018-07-22T23:42:00.357Z,3.17
2018-07-22T23:44:30.167Z,4.07
2018-07-22T23:47:01.022Z,3.33
2018-07-22T23:49:32.716Z,3.63
2018-07-22T23:52:03.330Z,3.37
2018-07-22T23:54:34.731Z,4.00
2018-07-22T23:57:05.880Z,3.13
2018-07-22T23:59:36.604Z,3.10
